Time;durP1;ratioP1;P1;durP2;ratioP2;P2;SDS_P1;SDS_P2;PMS_P1;PMS_P2;Temp;Humidity;BMP_temperature;BMP_pressure;BME280_temperature;BME280_humidity;BME280_pressure;Samples;Min_cycle;Max_cycle;Signal;HPM_P1;HPM_P2
2021/12/18 00:02:23;;;;;;;3.70;3.40;;;;;;;18.10;48.37;99164.38;4975383;28;20239;-82
2021/12/18 00:04:50;;;;;;;4.30;3.90;;;;;;;18.66;48.31;99257.34;4987434;28;20215;-82
2021/12/18 00:07:16;;;;;;;4.10;3.70;;;;;;;19.15;48.47;99363.44;4994827;28;20573;-81
2021/12/18 00:09:43;;;;;;;4.20;3.80;;;;;;;17.69;48.59;99121.56;4994505;28;20206;-82
2021/12/18 00:12:10;;;;;;;3.60;3.30;;;;;;;19.10;48.83;99352.06;4994544;28;20234;-82
2021/12/18 00:14:37;;;;;;;3.70;3.40;;;;;;;18.00;48.56;99168.72;4977911;28;20198;-82
2021/12/18 00:17:03;;;;;;;4.00;3.70;;;;;;;18.63;48.67;99268.97;4978669;28;20233;-81
2021/12/18 00:19:30;;;;;;;3.70;3.40;;;;;;;18.21;48.44;99224.47;4977741;28;20210;-82
2021/12/18 00:21:57;;;;;;;3.97;3.63;;;;;;;18.91;48.36;99351.56;4995155;28;20708;-83
2021/12/18 00:24:29;;;;;;;3.70;3.40;;;;;;;18.57;48.63;99249.09;4989649;28;20919;-82
2021/12/18 00:26:55;;;;;;;3.80;3.50;;;;;;;16.97;48.65;99027.47;4942733;28;20198;-82
2021/12/18 00:29:22;;;;;;;3.60;3.30;;;;;;;18.26;48.70;99201.91;4951477;28;20227;-84
2021/12/18 00:31:55;;;;;;;3.60;3.30;;;;;;;19.28;48.70;99386.47;4942850;28;20690;-81
2021/12/18 00:34:21;;;;;;;3.97;3.67;;;;;;;19.06;48.54;99337.31;4989376;28;20716;-83
2021/12/18 00:36:48;;;;;;;3.93;3.63;;;;;;;15.97;48.55;98823.97;4974662;28;20203;-83
2021/12/18 00:39:15;;;;;;;3.87;3.57;;;;;;;14.01;48.50;98477.03;4958382;28;20207;-83
2021/12/18 00:44:13;;;;;;;3.70;3.40;;;;;;;17.35;48.58;99026.81;4976433;28;20214;-83
2021/12/18 00:46:42;;;;;;;3.77;3.47;;;;;;;18.27;48.67;99195.16;4977762;28;20218;-83
2021/12/18 00:49:13;;;;;;;3.63;3.33;;;;;;;18.23;48.45;99193.19;4962703;28;20198;-82
2021/12/18 00:51:40;;;;;;;3.60;3.30;;;;;;;16.46;48.45;98889.25;4962056;28;20284;-83
2021/12/18 00:54:06;;;;;;;3.73;3.43;;;;;;;18.75;48.84;99297.81;4976369;28;20277;-81
2021/12/18 00:56:33;;;;;;;3.67;3.37;;;;;;;13.02;48.83;98328.16;4974309;28;20198;-81
2021/12/18 00:59:00;;;;;;;4.13;3.83;;;;;;;14.16;48.56;98489.16;4974045;28;20707;-83
2021/12/18 01:01:28;;;;;;;4.10;3.80;;;;;;;17.26;48.62;99013.47;4942583;28;20226;-83
2021/12/18 01:03:55;;;;;;;3.43;3.17;;;;;;;16.20;48.60;98834.09;4997105;28;20228;-83
2021/12/18 01:06:22;;;;;;;3.77;3.40;;;;;;;16.77;48.89;98932.09;4990296;28;20199;-83
2021/12/18 01:08:52;;;;;;;3.90;3.60;;;;;;;17.25;48.78;99120.97;4965040;28;20260;-83
2021/12/18 01:22:43;;;;;;;3.50;3.20;;;;;;;18.51;48.58;99283.41;4991086;28;20187;-89
2021/12/18 01:22:58;;;;;;;3.70;3.40;;;;;;;17.24;48.89;99057.34;5005991;28;20186;-88
2021/12/18 01:25:32;;;;;;;3.53;3.23;;;;;;;16.05;48.99;98873.59;4984732;28;20255;-88
2021/12/18 01:27:59;;;;;;;3.67;3.37;;;;;;;15.54;48.46;98745.66;4969168;28;20194;-87
2021/12/18 01:30:34;;;;;;;3.57;3.27;;;;;;;12.75;48.78;98267.28;5001249;28;20203;-89
2021/12/18 01:33:01;;;;;;;3.37;3.07;;;;;;;15.59;48.42;98784.84;4992316;28;20226;-82
2021/12/18 01:35:28;;;;;;;3.57;3.27;;;;;;;16.37;49.09;98891.97;4945864;28;20202;-82
2021/12/18 01:37:55;;;;;;;3.70;3.40;;;;;;;16.23;48.84;98858.00;4994926;28;20211;-82
2021/12/18 01:40:22;;;;;;;3.17;2.93;;;;;;;19.73;48.97;99468.59;4961178;28;20204;-82
2021/12/18 01:53:22;;;;;;;3.47;3.20;;;;;;;18.59;48.74;99241.53;4974116;28;20311;-82
2021/12/18 01:55:50;;;;;;;3.60;3.30;;;;;;;18.72;48.92;99260.31;4944511;28;20234;-83
2021/12/18 01:58:25;;;;;;;3.43;3.13;;;;;;;18.95;49.04;99328.94;4976995;28;20257;-82
2021/12/18 02:00:53;;;;;;;3.50;3.20;;;;;;;18.97;48.88;99303.56;4954162;28;20227;-81
2021/12/18 02:03:20;;;;;;;3.53;3.23;;;;;;;18.36;48.85;99191.59;4956877;28;20199;-81
2021/12/18 02:05:48;;;;;;;3.50;3.20;;;;;;;19.39;48.77;99385.53;4955607;28;20210;-83
2021/12/18 02:08:18;;;;;;;3.80;3.50;;;;;;;18.27;48.73;99179.09;4960584;28;20269;-82
2021/12/18 02:10:48;;;;;;;3.60;3.30;;;;;;;17.78;48.96;99122.22;4967876;28;20286;-82
2021/12/18 02:13:35;;;;;;;3.73;3.40;;;;;;;18.94;49.19;99305.91;4945099;28;20342;-83
2021/12/18 02:21:32;;;;;;;3.37;3.07;;;;;;;19.72;48.67;99449.00;4969230;28;20358;-82
2021/12/18 02:23:59;;;;;;;3.13;2.93;;;;;;;18.62;48.83;99257.91;4976442;28;20202;-84
2021/12/18 02:26:26;;;;;;;3.50;3.20;;;;;;;19.01;48.82;99319.19;4958751;28;20231;-83
2021/12/18 02:28:55;;;;;;;3.27;2.97;;;;;;;19.36;48.79;99383.66;4975874;28;20249;-82
2021/12/18 02:31:22;;;;;;;3.30;3.00;;;;;;;19.36;48.76;99388.75;4959850;28;20231;-83
2021/12/18 02:33:49;;;;;;;3.50;3.20;;;;;;;19.45;48.83;99391.03;4943240;28;20223;-82
2021/12/18 02:36:23;;;;;;;3.50;3.20;;;;;;;17.97;48.82;99131.22;4958069;28;20770;-83
2021/12/18 02:43:54;;;;;;;3.50;3.20;;;;;;;17.63;48.83;99070.31;4956184;28;20231;-82
2021/12/18 02:46:21;;;;;;;3.77;3.47;;;;;;;18.32;48.91;99183.63;4957147;28;20633;-82
2021/12/18 02:48:49;;;;;;;3.80;3.50;;;;;;;19.76;48.77;99431.44;4976182;28;20199;-83
2021/12/18 02:51:16;;;;;;;3.50;3.20;;;;;;;16.51;48.74;98877.75;4993406;28;20231;-83
2021/12/18 02:53:49;;;;;;;3.30;3.00;;;;;;;18.99;48.78;99290.19;4939218;28;20224;-83
2021/12/18 02:56:16;;;;;;;3.47;3.20;;;;;;;17.88;48.73;99089.00;4972898;28;20226;-82
2021/12/18 02:58:45;;;;;;;3.20;3.00;;;;;;;19.34;48.82;99359.72;4960137;28;20268;-82
2021/12/18 03:01:13;;;;;;;4.90;3.73;;;;;;;16.17;48.84;98811.91;4944785;28;20261;-84
2021/12/18 03:03:42;;;;;;;3.03;2.83;;;;;;;19.56;48.54;99383.31;4955990;28;20250;-82
2021/12/18 03:08:55;;;;;;;3.40;3.10;;;;;;;17.97;48.63;99122.72;4976700;28;20256;-84
2021/12/18 03:25:02;;;;;;;3.77;3.47;;;;;;;16.43;49.44;98907.63;4970535;28;20230;-90
2021/12/18 03:27:30;;;;;;;4.00;3.63;;;;;;;12.98;48.79;98275.66;5005341;28;20206;-90
2021/12/18 03:29:57;;;;;;;3.70;3.40;;;;;;;11.57;48.75;98038.97;5002623;28;20203;-90
2021/12/18 03:32:24;;;;;;;3.87;3.57;;;;;;;16.53;48.98;98888.88;4986949;28;20214;-87
2021/12/18 03:34:51;;;;;;;3.70;3.40;;;;;;;15.15;48.79;98667.66;4970799;28;20187;-87
2021/12/18 03:37:21;;;;;;;3.93;3.63;;;;;;;12.86;48.65;98236.16;4970800;28;20191;-91
2021/12/18 03:39:48;;;;;;;3.87;3.57;;;;;;;14.10;48.87;98443.19;4976280;28;20262;-81
2021/12/18 03:42:15;;;;;;;3.90;3.60;;;;;;;18.44;48.95;99207.41;4985115;28;20219;-80
2021/12/18 03:44:41;;;;;;;3.73;3.43;;;;;;;19.21;48.78;99356.19;4955603;28;20373;-82
2021/12/18 03:47:08;;;;;;;3.70;3.40;;;;;;;19.74;48.99;99437.19;4923382;28;20290;-82
2021/12/18 03:49:34;;;;;;;4.43;4.03;;;;;;;19.74;48.88;99422.78;4939722;28;20741;-82
2021/12/18 03:52:01;;;;;;;3.93;3.57;;;;;;;18.06;48.93;99133.53;4955646;28;20310;-84
2021/12/18 03:54:28;;;;;;;3.67;3.37;;;;;;;18.97;48.86;99281.53;4955104;28;20211;-82
2021/12/18 03:56:55;;;;;;;3.70;3.40;;;;;;;18.60;48.83;99213.63;4973728;28;20263;-82
2021/12/18 03:59:21;;;;;;;3.60;3.30;;;;;;;18.18;48.66;99190.34;4938898;28;20216;-83
2021/12/18 04:01:48;;;;;;;3.93;3.60;;;;;;;19.72;48.78;99415.84;4946321;28;20310;-82
2021/12/18 04:04:15;;;;;;;3.83;3.53;;;;;;;18.26;48.69;99171.34;4970629;28;20557;-78
2021/12/18 04:06:42;;;;;;;4.00;3.70;;;;;;;19.01;48.77;99292.84;4990403;28;20214;-83
2021/12/18 04:09:11;;;;;;;3.60;3.30;;;;;;;19.14;48.83;99309.03;4990914;28;20238;-82
2021/12/18 04:11:39;;;;;;;3.83;3.53;;;;;;;19.34;48.85;99364.84;4974550;28;20305;-82
2021/12/18 04:14:10;;;;;;;3.77;3.47;;;;;;;19.11;48.66;99295.19;4955357;28;20658;-82
2021/12/18 04:16:37;;;;;;;3.87;3.57;;;;;;;18.30;48.71;99159.72;4972599;28;20269;-83
2021/12/18 04:19:04;;;;;;;3.87;3.57;;;;;;;19.83;48.77;99425.06;4939092;28;20629;-83
2021/12/18 04:21:31;;;;;;;5.30;4.00;;;;;;;19.45;48.67;99355.34;4971014;28;20656;-82
2021/12/18 04:23:58;;;;;;;4.20;3.80;;;;;;;18.27;48.65;99153.66;4955389;28;20207;-81
2021/12/18 04:26:25;;;;;;;3.77;3.47;;;;;;;18.55;48.77;99202.25;4938969;28;20211;-83
2021/12/18 04:28:53;;;;;;;3.50;3.20;;;;;;;19.82;48.83;99420.75;4977461;28;20199;-91
2021/12/18 04:31:20;;;;;;;3.67;3.37;;;;;;;17.53;48.71;99023.03;4965875;28;20231;-89
2021/12/18 04:33:47;;;;;;;3.87;3.57;;;;;;;17.11;48.71;99027.63;4966590;28;20235;-89
2021/12/18 04:36:13;;;;;;;3.60;3.30;;;;;;;14.72;48.57;98588.50;4966758;28;20232;-89
2021/12/18 04:38:40;;;;;;;3.63;3.33;;;;;;;13.25;48.29;98276.09;4966272;28;20175;-91
2021/12/18 04:41:09;;;;;;;3.73;3.43;;;;;;;14.00;48.94;98455.94;4982306;28;20207;-89
2021/12/18 04:43:36;;;;;;;3.70;3.40;;;;;;;16.28;48.64;98815.22;4951121;28;20200;-90
2021/12/18 04:46:04;;;;;;;3.97;3.67;;;;;;;15.63;48.80;98718.44;4951053;28;20207;-91
2021/12/18 04:48:30;;;;;;;3.87;3.57;;;;;;;14.26;47.93;98457.84;4950338;28;20176;-89
2021/12/18 04:50:57;;;;;;;12.93;11.63;;;;;;;12.94;45.95;98352.78;4955198;28;20215;-83
2021/12/18 04:53:24;;;;;;;11.50;10.40;;;;;;;16.32;46.33;98837.50;4967455;28;20786;-83
2021/12/18 04:55:50;;;;;;;9.67;8.67;;;;;;;18.27;46.78;99165.50;4967805;28;20238;-84
2021/12/18 04:58:17;;;;;;;10.10;9.10;;;;;;;19.42;47.15;99370.44;4919870;28;20291;-84
2021/12/18 05:00:47;;;;;;;9.20;8.27;;;;;;;19.07;47.54;99304.28;4943255;28;20317;-82
2021/12/18 05:03:15;;;;;;;9.47;8.47;;;;;;;19.07;47.72;99313.63;4950069;28;20227;-83
2021/12/18 05:05:42;;;;;;;8.63;7.73;;;;;;;19.65;47.74;99406.88;4958704;28;20211;-83
2021/12/18 05:08:08;;;;;;;8.00;7.27;;;;;;;19.28;47.80;99343.13;4951553;28;20203;-83
2021/12/18 05:10:35;;;;;;;8.17;7.37;;;;;;;19.34;48.05;99362.28;4935585;28;20306;-83
2021/12/18 05:13:02;;;;;;;8.80;7.90;;;;;;;19.03;48.00;99304.00;4950944;28;20684;-83
2021/12/18 05:15:28;;;;;;;7.87;7.10;;;;;;;19.03;48.14;99296.34;4964282;28;20598;-83
2021/12/18 05:17:55;;;;;;;8.03;7.23;;;;;;;19.46;48.17;99377.50;4951521;28;20238;-83
2021/12/18 05:20:22;;;;;;;7.70;6.90;;;;;;;19.38;47.99;99360.78;4919941;28;20207;-83
2021/12/18 05:22:48;;;;;;;7.60;6.80;;;;;;;18.97;48.16;99281.53;4935512;28;20290;-82
2021/12/18 05:25:15;;;;;;;8.10;7.23;;;;;;;19.68;48.14;99411.28;4934578;28;20286;-84
2021/12/18 05:27:41;;;;;;;7.77;7.07;;;;;;;19.50;48.26;99375.25;4951115;28;20733;-81
2021/12/18 05:30:10;;;;;;;7.30;6.60;;;;;;;19.35;48.27;99360.59;4935795;28;20243;-83
2021/12/18 05:32:37;;;;;;;7.40;6.70;;;;;;;19.30;48.14;99360.28;4951365;28;20326;-83
2021/12/18 05:35:04;;;;;;;7.57;6.87;;;;;;;19.26;48.34;99347.19;4952853;28;20290;-84
2021/12/18 05:37:54;;;;;;;6.93;6.23;;;;;;;19.35;48.40;99358.94;4935489;28;20207;-81
2021/12/18 05:40:19;;;;;;;7.10;6.40;;;;;;;19.40;48.32;99372.00;4940502;28;20266;-81
2021/12/18 05:42:46;;;;;;;7.10;6.40;;;;;;;19.16;48.30;99321.88;4920259;28;20269;-83
2021/12/18 05:45:13;;;;;;;7.50;6.80;;;;;;;19.11;48.37;99315.59;4944623;28;20724;-82
2021/12/18 05:47:39;;;;;;;6.40;5.80;;;;;;;19.05;48.41;99310.97;4951153;28;20294;-84
2021/12/18 05:50:07;;;;;;;6.63;5.97;;;;;;;19.47;48.37;99381.81;4962015;28;20693;-84
2021/12/18 05:52:33;;;;;;;5.83;5.33;;;;;;;19.10;48.25;99321.47;4950492;28;20658;-83
2021/12/18 05:55:00;;;;;;;7.37;6.67;;;;;;;19.43;48.30;99377.28;4939261;28;20199;-83
2021/12/18 05:57:26;;;;;;;6.30;5.70;;;;;;;19.41;48.45;99377.19;4951047;28;20270;-84
2021/12/18 05:59:53;;;;;;;6.37;5.77;;;;;;;19.52;48.48;99395.75;4935559;28;20326;-83
2021/12/18 06:02:20;;;;;;;6.33;5.73;;;;;;;19.35;48.42;99360.59;4951194;28;20315;-83
2021/12/18 06:04:46;;;;;;;5.83;5.30;;;;;;;19.58;48.43;99393.63;4950933;28;20356;-83
2021/12/18 06:07:28;;;;;;;6.73;6.03;;;;;;;19.22;48.57;99343.56;4935190;28;20254;-83
2021/12/18 06:09:55;;;;;;;6.53;5.93;;;;;;;19.35;48.54;99363.16;4948707;28;20572;-80
2021/12/18 06:12:21;;;;;;;6.63;6.03;;;;;;;19.42;48.64;99386.59;4970428;28;20564;-82
2021/12/18 06:14:48;;;;;;;6.17;5.57;;;;;;;19.08;48.40;99323.03;4937187;28;20262;-82
2021/12/18 06:17:14;;;;;;;6.37;5.77;;;;;;;19.66;48.61;99431.59;4968440;28;20298;-83
2021/12/18 06:19:41;;;;;;;6.43;5.83;;;;;;;19.77;48.64;99443.41;4958045;28;20253;-81
2021/12/18 06:22:08;;;;;;;6.13;5.57;;;;;;;18.69;48.53;99256.66;4997815;23;20530;-76
2021/12/18 06:24:34;;;;;;;6.50;5.63;;;;;;;18.69;48.33;99303.41;4956282;28;20276;-76
2021/12/18 06:27:01;;;;;;;6.13;5.53;;;;;;;19.77;48.50;99445.94;4991768;28;20681;-76
2021/12/18 06:29:27;;;;;;;6.73;6.13;;;;;;;19.77;48.38;99442.50;4993031;28;20242;-75
2021/12/18 06:31:54;;;;;;;6.20;5.60;;;;;;;19.64;48.12;99417.88;4992610;28;20383;-76
2021/12/18 06:34:21;;;;;;;6.40;5.80;;;;;;;19.44;48.18;99381.59;4992378;28;20265;-77
2021/12/18 06:36:47;;;;;;;6.33;5.73;;;;;;;19.76;48.46;99444.19;4992452;28;20206;-76
2021/12/18 06:39:14;;;;;;;6.20;5.60;;;;;;;19.77;48.47;99450.16;4981677;28;20242;-77
2021/12/18 06:41:40;;;;;;;6.27;5.67;;;;;;;18.85;48.57;99287.47;4973085;28;20267;-76
2021/12/18 06:44:07;;;;;;;5.93;5.43;;;;;;;19.19;48.24;99345.91;4972633;28;20242;-73
2021/12/18 06:46:34;;;;;;;7.17;6.47;;;;;;;19.44;48.54;99382.50;4968003;28;20289;-77
2021/12/18 06:49:00;;;;;;;5.97;5.37;;;;;;;19.42;48.56;99386.59;4973003;28;20293;-76
2021/12/18 06:51:27;;;;;;;6.53;5.93;;;;;;;19.75;48.64;99441.53;4967416;28;20813;-78
2021/12/18 06:53:53;;;;;;;5.63;5.13;;;;;;;19.41;48.59;99382.28;4990589;28;20306;-76
2021/12/18 06:56:21;;;;;;;6.10;5.50;;;;;;;17.84;48.69;99107.38;4969474;28;20323;-73
2021/12/18 06:58:47;;;;;;;6.43;5.83;;;;;;;19.12;48.65;99330.09;4987721;28;20295;-76
2021/12/18 07:01:14;;;;;;;5.67;5.07;;;;;;;19.42;49.27;99381.50;4957095;28;20333;-78
2021/12/18 07:03:44;;;;;;;6.77;5.77;;;;;;;17.49;48.72;99041.38;4948304;28;20258;-73
2021/12/18 07:06:11;;;;;;;6.03;5.43;;;;;;;19.73;48.63;99431.25;4943240;28;20226;-77
2021/12/18 07:08:37;;;;;;;5.60;5.10;;;;;;;19.14;48.86;99319.25;4972703;28;20683;-76
2021/12/18 07:11:04;;;;;;;5.90;5.30;;;;;;;18.67;48.77;99255.66;4988800;28;20262;-76
2021/12/18 07:13:30;;;;;;;6.20;5.60;;;;;;;19.07;48.57;99322.13;4988510;28;20306;-76
2021/12/18 07:15:57;;;;;;;5.63;5.13;;;;;;;19.42;49.26;99378.09;4987764;28;20195;-78
2021/12/18 07:18:24;;;;;;;6.00;5.40;;;;;;;19.43;48.80;99374.75;4956535;28;20297;-76
2021/12/18 07:20:52;;;;;;;6.03;5.40;;;;;;;19.74;48.84;99444.84;4972415;28;20238;-76
2021/12/18 07:23:19;;;;;;;6.07;5.47;;;;;;;19.39;48.65;99380.44;4972726;28;20293;-76
2021/12/18 07:25:45;;;;;;;5.70;5.20;;;;;;;18.70;48.52;99260.97;4972238;28;20290;-76
2021/12/18 07:28:12;;;;;;;5.57;5.03;;;;;;;19.73;48.84;99443.09;4959279;28;20198;-77
2021/12/18 07:30:38;;;;;;;6.03;5.20;;;;;;;19.73;48.74;99440.53;4991481;28;20241;-76
2021/12/18 07:33:10;;;;;;;6.10;5.50;;;;;;;18.71;48.69;99263.59;4988650;28;20700;-76
2021/12/18 07:35:38;;;;;;;5.67;5.03;;;;;;;19.09;48.62;99327.34;4961965;28;20635;-77
2021/12/18 07:38:04;;;;;;;5.77;5.27;;;;;;;19.47;48.90;99398.00;4972060;28;20290;-77
2021/12/18 07:40:31;;;;;;;5.87;5.33;;;;;;;19.46;48.89;99395.34;4956166;28;20246;-76
2021/12/18 07:42:57;;;;;;;5.43;4.93;;;;;;;19.44;48.63;99386.69;4971813;28;20639;-76
2021/12/18 07:45:24;;;;;;;5.87;5.33;;;;;;;19.72;48.84;99442.19;4984003;28;20241;-76
2021/12/18 07:47:51;;;;;;;6.13;5.60;;;;;;;19.40;48.86;99390.75;4956045;28;20399;-76
2021/12/18 07:50:20;;;;;;;6.37;5.63;;;;;;;19.73;49.21;99448.19;4971808;28;20217;-75
2021/12/18 07:52:47;;;;;;;5.70;5.20;;;;;;;19.44;48.79;99399.44;4972203;28;20242;-76
2021/12/18 07:55:14;;;;;;;6.37;5.77;;;;;;;18.94;48.72;99304.25;4975724;28;20320;-76
2021/12/18 07:57:41;;;;;;;5.83;5.27;;;;;;;19.46;48.95;99400.44;4974807;28;20778;-76
2021/12/18 08:00:10;;;;;;;5.77;5.27;;;;;;;19.72;48.86;99447.31;4976420;28;20238;-76
2021/12/18 08:02:36;;;;;;;6.17;5.57;;;;;;;18.51;48.83;99233.38;4972155;28;20258;-76
2021/12/18 08:05:03;;;;;;;5.77;5.17;;;;;;;19.73;48.81;99451.66;4985625;28;20238;-76
2021/12/18 08:07:30;;;;;;;6.00;5.40;;;;;;;18.95;48.67;99311.13;4975736;28;20507;-75
2021/12/18 08:09:56;;;;;;;6.00;5.40;;;;;;;18.87;48.66;99291.00;4956588;28;20293;-76
2021/12/18 08:12:23;;;;;;;6.00;5.40;;;;;;;19.73;48.76;99443.09;4972672;28;20262;-76
2021/12/18 08:14:50;;;;;;;5.37;4.87;;;;;;;19.73;48.72;99450.75;4990112;28;20219;-76
2021/12/18 08:17:16;;;;;;;6.00;5.40;;;;;;;19.15;48.80;99351.56;4968938;28;20653;-77
2021/12/18 08:19:45;;;;;;;6.33;5.73;;;;;;;19.59;48.82;99434.53;4957411;28;20206;-79
2021/12/18 08:22:11;;;;;;;6.20;5.60;;;;;;;19.73;48.75;99450.75;4996285;28;20359;-78
2021/12/18 08:24:38;;;;;;;7.30;6.60;;;;;;;19.35;48.10;99389.53;5006092;28;20240;-77
2021/12/18 08:27:04;;;;;;;7.07;6.40;;;;;;;18.73;47.94;99273.91;4961991;28;20242;-76
2021/12/18 08:29:31;;;;;;;9.80;8.57;;;;;;;19.73;48.32;99450.75;4972257;28;20293;-74
2021/12/18 08:31:58;;;;;;;11.80;10.60;;;;;;;19.52;47.40;99421.25;4973733;28;20230;-76
2021/12/18 08:34:25;;;;;;;10.50;9.47;;;;;;;18.97;47.29;99326.50;4973576;28;20701;-76
2021/12/18 08:36:51;;;;;;;10.30;8.60;;;;;;;18.55;47.70;99249.72;4980360;28;20265;-87
2021/12/18 08:39:18;;;;;;;10.87;9.77;;;;;;;19.13;47.54;99349.72;4970367;28;20222;-85
2021/12/18 08:41:45;;;;;;;13.80;12.20;;;;;;;19.02;46.14;99354.09;4981794;28;20277;-86
2021/12/18 08:44:13;;;;;;;14.90;13.30;;;;;;;18.42;46.06;99222.59;4966761;28;20245;-85
2021/12/18 08:46:39;;;;;;;17.97;15.67;;;;;;;19.67;45.12;99442.69;4968196;28;20230;-85
2021/12/18 08:49:06;;;;;;;20.27;16.57;;;;;;;19.31;44.71;99387.56;4989194;28;20293;-86
2021/12/18 08:51:33;;;;;;;21.07;18.30;;;;;;;19.64;44.25;99443.38;4976988;28;20833;-85
2021/12/18 08:53:59;;;;;;;21.93;18.83;;;;;;;19.28;43.99;99383.91;4974259;28;20229;-86
2021/12/18 08:56:26;;;;;;;22.30;19.23;;;;;;;19.31;43.50;99396.88;4969115;28;20290;-85
2021/12/18 08:58:53;;;;;;;23.50;20.07;;;;;;;19.61;43.17;99452.47;4978513;28;20246;-85
2021/12/18 09:01:21;;;;;;;22.67;20.00;;;;;;;19.47;42.75;99466.84;4997662;28;20664;-87
2021/12/18 09:03:48;;;;;;;24.30;21.03;;;;;;;18.97;42.86;99345.25;4972089;28;20227;-87
2021/12/18 09:06:15;;;;;;;25.67;21.13;;;;;;;19.00;42.25;99353.09;4959477;28;20203;-86
2021/12/18 09:08:41;;;;;;;24.50;21.00;;;;;;;19.59;42.25;99459.13;4972233;28;20241;-85
2021/12/18 09:11:08;;;;;;;23.10;19.90;;;;;;;19.59;42.69;99460.03;4963107;28;20795;-87
2021/12/18 09:13:34;;;;;;;23.50;20.60;;;;;;;19.59;42.51;99454.94;4989400;28;20715;-86
2021/12/18 09:16:01;;;;;;;23.50;20.50;;;;;;;18.15;42.42;99210.47;4994778;28;20697;-84
2021/12/18 09:18:28;;;;;;;23.77;20.30;;;;;;;19.29;42.93;99401.88;4955630;28;20206;-85
2021/12/18 09:20:54;;;;;;;22.20;19.80;;;;;;;18.66;42.65;99285.34;4993017;28;20292;-86
2021/12/18 09:23:22;;;;;;;22.67;19.77;;;;;;;19.61;43.04;99458.47;4969284;28;20198;-86
2021/12/18 09:25:49;;;;;;;22.53;20.03;;;;;;;19.27;42.57;99387.25;4997867;28;20209;-85
2021/12/18 09:28:15;;;;;;;25.70;20.30;;;;;;;19.30;41.79;99401.06;4956230;28;20230;-87
2021/12/18 09:30:42;;;;;;;22.07;19.73;;;;;;;19.62;41.56;99457.69;4973763;28;20211;-85
2021/12/18 09:33:13;;;;;;;27.70;21.23;;;;;;;19.63;40.56;99456.03;4985031;28;20276;-86
2021/12/18 09:35:40;;;;;;;23.37;19.90;;;;;;;19.63;41.08;99451.78;5006453;28;20229;-85
2021/12/18 09:38:06;;;;;;;22.40;18.67;;;;;;;19.35;41.32;99396.28;4980217;28;20206;-85
2021/12/18 09:40:33;;;;;;;20.43;17.87;;;;;;;19.64;42.01;99451.03;4957082;28;20246;-84
2021/12/18 09:43:00;;;;;;;21.07;17.67;;;;;;;19.37;42.37;99394.75;4965967;28;20236;-85
2021/12/18 09:45:26;;;;;;;20.27;18.07;;;;;;;19.67;42.85;99447.78;4951295;28;20509;-85
2021/12/18 09:47:53;;;;;;;19.10;17.10;;;;;;;18.67;43.18;99269.28;4989765;28;20646;-85
2021/12/18 09:50:21;;;;;;;18.90;16.93;;;;;;;19.68;43.38;99437.69;4970117;28;20743;-85
2021/12/18 09:52:47;;;;;;;19.20;16.77;;;;;;;19.70;43.55;99443.78;4973808;28;20254;-87
2021/12/18 09:55:14;;;;;;;21.63;16.73;;;;;;;19.15;44.01;99340.50;4972337;28;20309;-85
2021/12/18 09:57:41;;;;;;;18.47;16.27;;;;;;;19.73;44.05;99445.66;4973400;28;20314;-85
2021/12/18 10:00:10;;;;;;;18.27;16.00;;;;;;;18.82;44.40;99270.31;4990618;28;20243;-85
2021/12/18 10:02:36;;;;;;;16.70;14.87;;;;;;;19.39;44.67;99360.91;4975440;28;20318;-84
2021/12/18 10:05:03;;;;;;;16.30;14.60;;;;;;;17.76;44.64;99076.34;4972728;28;20613;-83
2021/12/18 10:07:30;;;;;;;16.80;14.90;;;;;;;19.80;45.04;99422.31;4993942;28;20293;-86
2021/12/18 10:09:57;;;;;;;16.20;14.47;;;;;;;19.46;44.86;99358.00;4994758;28;21016;-84
2021/12/18 10:12:25;;;;;;;16.57;14.03;;;;;;;19.84;44.88;99411.53;4973923;28;20309;-86
2021/12/18 10:15:05;;;;;;;15.27;13.67;;;;;;;19.85;44.86;99411.63;4967975;28;20227;-83
2021/12/18 10:17:39;;;;;;;14.47;12.97;;;;;;;19.87;44.80;99410.03;4972732;28;20633;-85
2021/12/18 10:20:14;;;;;;;15.70;14.00;;;;;;;19.88;44.80;99409.28;4991401;28;20224;-85
2021/12/18 10:22:47;;;;;;;15.63;13.87;;;;;;;19.09;44.77;99268.72;4991112;28;20244;-86
2021/12/18 10:25:16;;;;;;;16.03;14.17;;;;;;;19.66;44.92;99367.81;4975515;28;20317;-85
2021/12/18 10:27:44;;;;;;;14.37;12.70;;;;;;;19.91;45.01;99409.47;4971676;28;20297;-85
2021/12/18 10:30:16;;;;;;;14.23;12.73;;;;;;;19.92;45.01;99407.78;4968367;28;20234;-86
2021/12/18 10:32:55;;;;;;;14.13;12.60;;;;;;;19.93;44.81;99407.91;4970670;28;20302;-86
2021/12/18 10:35:22;;;;;;;16.47;14.83;;;;;;;19.93;42.79;99422.34;4971235;28;20348;-88
2021/12/18 10:37:49;;;;;;;16.17;14.47;;;;;;;19.93;43.16;99396.81;4971632;28;20206;-85
2021/12/18 10:40:15;;;;;;;17.50;14.07;;;;;;;17.77;43.41;99074.69;4990315;28;20699;-88
2021/12/18 10:42:44;;;;;;;16.20;14.50;;;;;;;19.93;43.70;99400.25;4986648;28;20373;-86
2021/12/18 10:45:17;;;;;;;14.87;13.27;;;;;;;19.94;44.00;99396.03;4960856;28;20320;-84
2021/12/18 10:48:22;;;;;;;14.07;12.63;;;;;;;19.95;44.30;99398.69;4992868;28;20641;-86
2021/12/18 10:50:53;;;;;;;14.80;13.30;;;;;;;19.31;44.50;99277.94;4919862;29;20989;-87
2021/12/18 10:53:24;;;;;;;13.67;12.27;;;;;;;19.96;44.58;99394.47;4903503;29;20588;-85
2021/12/18 10:55:58;;;;;;;13.93;12.53;;;;;;;18.95;44.65;99210.88;4948779;28;20764;-85
2021/12/18 10:58:28;;;;;;;13.33;11.93;;;;;;;19.97;44.75;99388.56;4974612;28;20650;-87
2021/12/18 11:01:21;;;;;;;13.70;12.10;;;;;;;18.44;44.60;99119.19;4994055;28;20301;-86
2021/12/18 11:03:49;;;;;;;13.10;11.70;;;;;;;19.98;44.78;99382.66;4972874;28;20234;-86
2021/12/18 11:06:26;;;;;;;13.17;11.87;;;;;;;19.67;44.71;99326.25;4971875;28;20220;-85
2021/12/18 11:09:04;;;;;;;12.53;11.23;;;;;;;19.99;44.77;99375.09;4959888;28;21185;-83
2021/12/18 11:14:10;;;;;;;12.10;10.70;;;;;;;19.68;44.75;99315.25;4964473;28;20293;-85
2021/12/18 11:16:38;;;;;;;12.10;10.90;;;;;;;19.43;44.96;99266.00;4973556;28;20227;-84
2021/12/18 11:19:12;;;;;;;11.80;10.43;;;;;;;18.80;45.19;99151.28;4975402;28;20330;-85
2021/12/18 11:22:02;;;;;;;11.63;10.43;;;;;;;20.00;45.25;99360.69;4972489;28;21136;-85
2021/12/18 11:24:35;;;;;;;11.50;10.30;;;;;;;19.49;45.28;99262.94;4994239;28;20289;-84
2021/12/18 11:27:07;;;;;;;10.80;9.80;;;;;;;19.40;45.45;99247.94;4952498;28;20951;-85
2021/12/18 11:29:44;;;;;;;10.97;9.83;;;;;;;19.00;45.53;99167.09;4958347;28;20265;-85
2021/12/18 11:32:21;;;;;;;11.50;9.93;;;;;;;18.19;45.53;99024.13;4973857;28;20288;-86
2021/12/18 11:34:50;;;;;;;10.37;9.10;;;;;;;20.01;45.48;99344.59;4967765;28;20321;-84
2021/12/18 11:37:17;;;;;;;10.60;9.10;;;;;;;19.67;45.66;99281.97;4971216;28;20234;-85
2021/12/18 11:39:44;;;;;;;10.33;9.20;;;;;;;19.67;45.38;99282.88;4962584;28;20234;-84
2021/12/18 11:42:11;;;;;;;9.57;8.57;;;;;;;19.48;45.46;99246.75;4971550;28;20381;-84
2021/12/18 11:44:52;;;;;;;10.77;9.67;;;;;;;19.37;45.09;99222.25;4967742;28;20695;-87
2021/12/18 11:47:30;;;;;;;9.87;8.87;;;;;;;20.02;45.17;99326.81;4960268;28;20306;-84
2021/12/18 11:50:05;;;;;;;10.37;9.27;;;;;;;19.28;45.65;99196.16;4972386;28;20744;-86
2021/12/18 11:53:01;;;;;;;10.33;8.03;;;;;;;20.02;45.67;99324.25;4957567;28;20317;-86
2021/12/18 11:55:49;;;;;;;9.27;8.37;;;;;;;19.12;45.56;99165.31;4972494;28;20222;-85
2021/12/18 11:58:39;;;;;;;9.27;8.37;;;;;;;20.01;45.86;99324.16;4970612;28;20213;-86
2021/12/18 12:01:18;;;;;;;9.53;8.63;;;;;;;20.02;45.91;99310.63;4990804;28;20320;-84
2021/12/18 12:03:56;;;;;;;8.90;8.00;;;;;;;18.28;45.95;99045.09;4989531;28;20296;-86
2021/12/18 12:06:30;;;;;;;9.60;8.60;;;;;;;20.02;45.94;99310.63;4974772;28;20238;-84
2021/12/18 12:09:20;;;;;;;9.13;8.23;;;;;;;19.69;45.81;99243.03;4987077;28;20936;-88
2021/12/18 12:11:51;;;;;;;8.50;7.57;;;;;;;20.02;46.23;99298.75;4982095;28;20254;-86
2021/12/18 12:14:19;;;;;;;9.60;7.63;;;;;;;20.02;46.16;99291.09;4972438;28;20237;-87
2021/12/18 12:16:46;;;;;;;8.70;7.77;;;;;;;20.04;45.83;99297.97;4959254;28;20251;-86
2021/12/18 12:19:14;;;;;;;9.03;8.00;;;;;;;20.04;45.97;99303.94;4989902;28;20239;-87
2021/12/18 12:45:55;;;;;;;10.50;7.80;;;;;;;19.85;45.64;99250.88;5078492;23;20256;-90
2021/12/18 12:48:22;;;;;;;9.60;7.53;;;;;;;19.38;45.79;99164.47;4973584;28;20274;-90
2021/12/18 12:50:59;;;;;;;8.40;7.40;;;;;;;19.86;45.85;99238.97;4972823;28;20925;-91
2021/12/18 12:53:48;;;;;;;7.90;6.87;;;;;;;20.07;45.77;99270.94;4994451;28;20226;-89